West Chester, Ohio
Current Conditions -  °F | °C
As of 7:53 PM on Friday 31 Oct 2014 (Local Time) from KHAO Reporting Station
Light Rain Light Rain  
Wind Chill: 33°   Ceiling: 1700
Heat Index: 40°   Visibility: 10mi
Dew Point: 36°   Wind: 10mph
Humidity: 86%   Direction: 290°WNW
Pressure: 29.98"   Gusts: NA
Location:  39.33°N, 84.4°W
Report Text: KHAO 312353Z AUTO 29009KT 10SM -RA BKN017 OVC026 04/02 A2998 RMK AO2 RAB04E17B42 SLP156 P0000 60006 T00440022 10056 20044 52006
Loading
Personal Weather Stations






























Interactive Weather Map New forecast layout! Learn more

10-Day Weather Forecast

Advertisements
Track Severe Weather on mobile